CheckWX is a tool to help pilots better visualize weather data.  It is not intended as a substitute for an official pre-flight weather briefing.

01:07:42 UTC

EGCK TAF
Caernarfon Airport
Caernarfon, United Kingdom
TAF EGCK 091954Z 0921/1006 02006KT 9999 BKN030 BECMG 1003/1006 32016KT

Jul-9@
21:00 UTC

Jul-9 @ 21:00 UTC

Jul-10@
03:00 UTC

Jul-10 @ 03:00 UTC

TAF EGCK 091954Z 0921/1006 02006KT 9999 BKN030
Wind
  • 020° at 6 KTS
Cloud Levels
  • Broken at 3,000' AGL

Jul-10@
03:00 UTC

Jul-10 @ 03:00 UTC

Jul-10@
06:00 UTC

Jul-10 @ 06:00 UTC

BECMG 1003/1006 32016KT

Becoming

Becoming Conditions expected by Fri, Jul 10, 2020 @ 06:00 UTC

Wind
  • 320° at 16 KTS
Cloud Levels
  • Broken at 3,000' AGL